sensor_id;sensor_type;location;lat;lon;timestamp;pressure;altitude;pressure_sealevel;temperature;humidity
62694;BME280;48759;52.544;13.418;2023-04-28T00:01:44;101336.88;;;1.32;100.00
62694;BME280;48759;52.544;13.418;2023-04-28T00:04:13;101327.31;;;1.28;100.00
62694;BME280;48759;52.544;13.418;2023-04-28T00:06:39;101335.94;;;1.22;100.00
62694;BME280;48759;52.544;13.418;2023-04-28T00:09:06;101330.28;;;1.25;100.00
62694;BME280;48759;52.544;13.418;2023-04-28T00:11:35;101322.53;;;1.21;100.00
62694;BME280;48759;52.544;13.418;2023-04-28T00:14:02;101330.19;;;1.15;100.00
62694;BME280;48759;52.544;13.418;2023-04-28T00:16:29;101324.31;;;1.10;100.00
62694;BME280;48759;52.544;13.418;2023-04-28T00:18:56;101333.03;;;1.14;100.00
62694;BME280;48759;52.544;13.418;2023-04-28T00:21:25;101333.31;;;1.11;100.00
62694;BME280;48759;52.544;13.418;2023-04-28T00:23:54;101329.84;;;1.09;100.00
62694;BME280;48759;52.544;13.418;2023-04-28T00:26:21;101329.06;;;1.18;100.00
62694;BME280;48759;52.544;13.418;2023-04-28T00:28:48;101324.44;;;1.09;100.00
62694;BME280;48759;52.544;13.418;2023-04-28T00:31:15;101332.66;;;1.19;100.00
62694;BME280;48759;52.544;13.418;2023-04-28T00:33:42;101329.06;;;1.18;100.00
62694;BME280;48759;52.544;13.418;2023-04-28T00:36:09;101326.41;;;1.07;100.00
62694;BME280;48759;52.544;13.418;2023-04-28T00:38:38;101319.66;;;1.01;100.00
62694;BME280;48759;52.544;13.418;2023-04-28T00:41:08;101323.25;;;1.02;100.00
62694;BME280;48759;52.544;13.418;2023-04-28T00:43:43;101312.41;;;1.02;100.00
62694;BME280;48759;52.544;13.418;2023-04-28T00:46:12;101318.69;;;1.02;100.00
62694;BME280;48759;52.544;13.418;2023-04-28T00:48:44;101313.25;;;1.02;100.00
62694;BME280;48759;52.544;13.418;2023-04-28T00:51:12;101308.56;;;1.04;100.00
62694;BME280;48759;52.544;13.418;2023-04-28T00:53:43;101300.81;;;1.00;100.00
62694;BME280;48759;52.544;13.418;2023-04-28T00:56:11;101306.97;;;1.02;100.00
62694;BME280;48759;52.544;13.418;2023-04-28T00:58:40;101305.25;;;1.01;100.00
62694;BME280;48759;52.544;13.418;2023-04-28T01:01:09;101305.66;;;0.96;100.00
62694;BME280;48759;52.544;13.418;2023-04-28T01:03:37;101304.41;;;1.00;100.00
62694;BME280;48759;52.544;13.418;2023-04-28T01:06:05;101305.25;;;1.01;100.00
62694;BME280;48759;52.544;13.418;2023-04-28T01:08:34;101306.13;;;1.01;100.00
62694;BME280;48759;52.544;13.418;2023-04-28T01:11:03;101310.16;;;1.07;100.00
62694;BME280;48759;52.544;13.418;2023-04-28T01:13:30;101304.72;;;1.07;100.00
62694;BME280;48759;52.544;13.418;2023-04-28T01:15:57;101295.03;;;1.04;100.00
62694;BME280;48759;52.544;13.418;2023-04-28T01:18:24;101296.59;;;1.07;100.00
62694;BME280;48759;52.544;13.418;2023-04-28T01:20:51;101286.94;;;1.14;100.00
62694;BME280;48759;52.544;13.418;2023-04-28T01:23:18;101291.78;;;1.10;100.00
62694;BME280;48759;52.544;13.418;2023-04-28T01:25:46;101283.53;;;1.12;100.00
62694;BME280;48759;52.544;13.418;2023-04-28T01:28:13;101289.94;;;1.11;100.00
62694;BME280;48759;52.544;13.418;2023-04-28T01:30:41;101287.75;;;1.05;100.00
62694;BME280;48759;52.544;13.418;2023-04-28T01:33:08;101283.31;;;1.04;100.00
62694;BME280;48759;52.544;13.418;2023-04-28T01:35:35;101288.75;;;1.04;100.00
62694;BME280;48759;52.544;13.418;2023-04-28T01:38:02;101284.56;;;1.00;100.00
62694;BME280;48759;52.544;13.418;2023-04-28T01:40:30;101280.13;;;0.99;100.00
62694;BME280;48759;52.544;13.418;2023-04-28T01:42:59;101275.25;;;0.93;100.00
62694;BME280;48759;52.544;13.418;2023-04-28T01:45:26;101276.84;;;0.84;100.00
62694;BME280;48759;52.544;13.418;2023-04-28T01:47:54;101273.69;;;0.79;100.00
62694;BME280;48759;52.544;13.418;2023-04-28T01:50:20;101271.22;;;0.76;100.00
62694;BME280;48759;52.544;13.418;2023-04-28T01:52:47;101276.25;;;0.81;100.00
62694;BME280;48759;52.544;13.418;2023-04-28T01:55:14;101270.34;;;0.75;100.00
62694;BME280;48759;52.544;13.418;2023-04-28T01:57:41;101262.50;;;0.72;100.00
62694;BME280;48759;52.544;13.418;2023-04-28T02:00:10;101274.19;;;0.73;100.00
62694;BME280;48759;52.544;13.418;2023-04-28T02:02:38;101267.41;;;0.78;100.00
62694;BME280;48759;52.544;13.418;2023-04-28T02:05:05;101261.97;;;0.78;100.00
62694;BME280;48759;52.544;13.418;2023-04-28T02:07:32;101257.66;;;0.76;100.00
62694;BME280;48759;52.544;13.418;2023-04-28T02:09:59;101267.41;;;0.78;100.00
62694;BME280;48759;52.544;13.418;2023-04-28T02:12:29;101265.78;;;0.76;100.00
62694;BME280;48759;52.544;13.418;2023-04-28T02:14:55;101260.25;;;0.77;100.00
62694;BME280;48759;52.544;13.418;2023-04-28T02:17:24;101262.22;;;0.75;100.00
62694;BME280;48759;52.544;13.418;2023-04-28T02:19:54;101269.50;;;0.75;100.00
62694;BME280;48759;52.544;13.418;2023-04-28T02:22:22;101268.63;;;0.74;100.00
62694;BME280;48759;52.544;13.418;2023-04-28T02:24:51;101264.47;;;0.70;100.00
62694;BME280;48759;52.544;13.418;2023-04-28T02:27:19;101264.47;;;0.70;100.00
62694;BME280;48759;52.544;13.418;2023-04-28T02:29:48;101264.72;;;0.67;100.00
62694;BME280;48759;52.544;13.418;2023-04-28T02:32:14;101257.34;;;0.69;100.00
62694;BME280;48759;52.544;13.418;2023-04-28T02:34:45;101257.59;;;0.66;100.00
62694;BME280;48759;52.544;13.418;2023-04-28T02:37:12;101251.69;;;0.61;100.00
62694;BME280;48759;52.544;13.418;2023-04-28T02:39:39;101255.41;;;0.60;100.00
62694;BME280;48759;52.544;13.418;2023-04-28T02:42:06;101255.16;;;0.63;100.00
62694;BME280;48759;52.544;13.418;2023-04-28T02:44:33;101252.69;;;0.60;100.00
62694;BME280;48759;52.544;13.418;2023-04-28T02:47:00;101251.94;;;0.58;100.00
62694;BME280;48759;52.544;13.418;2023-04-28T02:49:27;101251.56;;;0.63;100.00
62694;BME280;48759;52.544;13.418;2023-04-28T02:51:58;101242.13;;;0.57;100.00
62694;BME280;48759;52.544;13.418;2023-04-28T02:54:28;101244.69;;;0.59;100.00
62694;BME280;48759;52.544;13.418;2023-04-28T02:56:56;101244.69;;;0.59;100.00
62694;BME280;48759;52.544;13.418;2023-04-28T02:59:23;101242.38;;;0.54;100.00
62694;BME280;48759;52.544;13.418;2023-04-28T03:02:00;101240.41;;;0.56;100.00
62694;BME280;48759;52.544;13.418;2023-04-28T03:04:28;101240.13;;;0.59;100.00
62694;BME280;48759;52.544;13.418;2023-04-28T03:06:55;101243.66;;;0.71;100.00
62694;BME280;48759;52.544;13.418;2023-04-28T03:09:23;101236.00;;;0.76;100.00
62694;BME280;48759;52.544;13.418;2023-04-28T03:11:50;101240.56;;;0.75;100.00
62694;BME280;48759;52.544;13.418;2023-04-28T03:14:17;101236.13;;;0.74;100.00
62694;BME280;48759;52.544;13.418;2023-04-28T03:16:44;101229.47;;;0.78;100.00
62694;BME280;48759;52.544;13.418;2023-04-28T03:19:11;101231.19;;;0.79;100.00
62694;BME280;48759;52.544;13.418;2023-04-28T03:21:39;101232.06;;;0.80;100.00
62694;BME280;48759;52.544;13.418;2023-04-28T03:24:06;101241.84;;;0.92;100.00
62694;BME280;48759;52.544;13.418;2023-04-28T03:26:37;101234.16;;;0.76;100.00
62694;BME280;48759;52.544;13.418;2023-04-28T03:29:04;101236.31;;;0.83;100.00
62694;BME280;48759;52.544;13.418;2023-04-28T03:31:31;101231.88;;;0.93;100.00
62694;BME280;48759;52.544;13.418;2023-04-28T03:33:57;101223.38;;;0.97;100.00
62694;BME280;48759;52.544;13.418;2023-04-28T03:36:24;101221.13;;;1.02;100.00
62694;BME280;48759;52.544;13.418;2023-04-28T03:38:53;101220.44;;;1.10;100.00
62694;BME280;48759;52.544;13.418;2023-04-28T03:41:19;101223.16;;;1.10;100.00
62694;BME280;48759;52.544;13.418;2023-04-28T03:43:48;101222.91;;;1.13;100.00
62694;BME280;48759;52.544;13.418;2023-04-28T03:46:17;101220.34;;;1.21;100.00
62694;BME280;48759;52.544;13.418;2023-04-28T03:48:44;101220.66;;;1.18;100.00
62694;BME280;48759;52.544;13.418;2023-04-28T03:51:12;101212.38;;;1.20;100.00
62694;BME280;48759;52.544;13.418;2023-04-28T03:53:39;101212.41;;;1.29;100.00
62694;BME280;48759;52.544;13.418;2023-04-28T03:56:07;101216.28;;;1.27;100.00
62694;BME280;48759;52.544;13.418;2023-04-28T03:58:37;101223.25;;;1.29;100.00
62694;BME280;48759;52.544;13.418;2023-04-28T04:01:06;101211.03;;;1.35;100.00
62694;BME280;48759;52.544;13.418;2023-04-28T04:03:33;101211.91;;;1.35;100.00
62694;BME280;48759;52.544;13.418;2023-04-28T04:06:03;101209.25;;;1.54;100.00
62694;BME280;48759;52.544;13.418;2023-04-28T04:08:30;101205.72;;;1.64;100.00
62694;BME280;48759;52.544;13.418;2023-04-28T04:11:00;101194.94;;;1.73;100.00
62694;BME280;48759;52.544;13.418;2023-04-28T04:13:27;101204.78;;;1.74;100.00
62694;BME280;48759;52.544;13.418;2023-04-28T04:15:54;101201.50;;;1.80;100.00
62694;BME280;48759;52.544;13.418;2023-04-28T04:18:23;101204.97;;;1.92;100.00
62694;BME280;48759;52.544;13.418;2023-04-28T04:20:50;101198.28;;;1.96;100.00
62694;BME280;48759;52.544;13.418;2023-04-28T04:23:20;101199.31;;;2.14;100.00
62694;BME280;48759;52.544;13.418;2023-04-28T04:25:47;101204.19;;;2.20;100.00
62694;BME280;48759;52.544;13.418;2023-04-28T04:28:13;101204.75;;;2.14;100.00
62694;BME280;48759;52.544;13.418;2023-04-28T04:30:41;101207.19;;;2.27;100.00
62694;BME280;48759;52.544;13.418;2023-04-28T04:33:10;101201.72;;;2.08;100.00
62694;BME280;48759;52.544;13.418;2023-04-28T04:35:40;101202.63;;;2.27;100.00
62694;BME280;48759;52.544;13.418;2023-04-28T04:38:08;101197.88;;;2.10;100.00
62694;BME280;48759;52.544;13.418;2023-04-28T04:40:36;101193.03;;;2.23;100.00
62694;BME280;48759;52.544;13.418;2023-04-28T04:43:06;101190.91;;;2.27;100.00
62694;BME280;48759;52.544;13.418;2023-04-28T04:45:36;101183.03;;;2.33;100.00
62694;BME280;48759;52.544;13.418;2023-04-28T04:48:03;101184.19;;;2.41;100.00
62694;BME280;48759;52.544;13.418;2023-04-28T04:50:30;101184.47;;;2.47;100.00
62694;BME280;48759;52.544;13.418;2023-04-28T04:52:59;101187.19;;;2.38;100.00
62694;BME280;48759;52.544;13.418;2023-04-28T04:55:26;101189.91;;;2.38;100.00
62694;BME280;48759;52.544;13.418;2023-04-28T04:57:52;101194.47;;;2.47;100.00
62694;BME280;48759;52.544;13.418;2023-04-28T05:00:19;101179.88;;;2.57;100.00
62694;BME280;48759;52.544;13.418;2023-04-28T05:02:47;101178.19;;;2.66;100.00
62694;BME280;48759;52.544;13.418;2023-04-28T05:05:14;101177.59;;;2.72;100.00
62694;BME280;48759;52.544;13.418;2023-04-28T05:07:41;101163.00;;;2.73;100.00
62694;BME280;48759;52.544;13.418;2023-04-28T05:10:10;101173.59;;;2.76;100.00
62694;BME280;48759;52.544;13.418;2023-04-28T05:12:37;101175.00;;;2.80;100.00
62694;BME280;48759;52.544;13.418;2023-04-28T05:15:04;101168.69;;;2.89;100.00
62694;BME280;48759;52.544;13.418;2023-04-28T05:17:32;101168.97;;;2.96;100.00
62694;BME280;48759;52.544;13.418;2023-04-28T05:19:59;101168.66;;;3.08;100.00
62694;BME280;48759;52.544;13.418;2023-04-28T05:22:25;101165.34;;;3.15;100.00
62694;BME280;48759;52.544;13.418;2023-04-28T05:24:52;101163.78;;;3.12;100.00
62694;BME280;48759;52.544;13.418;2023-04-28T05:27:20;101165.78;;;3.10;100.00
62694;BME280;48759;52.544;13.418;2023-04-28T05:29:47;101171.19;;;3.20;100.00
62694;BME280;48759;52.544;13.418;2023-04-28T05:32:14;101171.47;;;3.26;100.00
62694;BME280;48759;52.544;13.418;2023-04-28T05:34:41;101165.03;;;3.37;100.00
62694;BME280;48759;52.544;13.418;2023-04-28T05:37:07;101157.38;;;3.50;100.00
62694;BME280;48759;52.544;13.418;2023-04-28T05:39:34;101158.66;;;3.56;100.00
62694;BME280;48759;52.544;13.418;2023-04-28T05:42:02;101148.72;;;3.64;100.00
62694;BME280;48759;52.544;13.418;2023-04-28T05:44:33;101149.50;;;3.74;100.00
62694;BME280;48759;52.544;13.418;2023-04-28T05:47:01;101154.63;;;3.87;100.00
62694;BME280;48759;52.544;13.418;2023-04-28T05:49:28;101146.28;;;3.89;100.00
62694;BME280;48759;52.544;13.418;2023-04-28T05:51:56;101138.59;;;4.02;100.00
62694;BME280;48759;52.544;13.418;2023-04-28T05:54:24;101142.09;;;4.12;100.00
62694;BME280;48759;52.544;13.418;2023-04-28T05:56:52;101136.44;;;4.23;100.00
62694;BME280;48759;52.544;13.418;2023-04-28T05:59:23;101139.16;;;4.41;100.00
62694;BME280;48759;52.544;13.418;2023-04-28T06:01:54;101132.00;;;4.57;100.00
62694;BME280;48759;52.544;13.418;2023-04-28T06:04:22;101129.72;;;4.53;100.00
62694;BME280;48759;52.544;13.418;2023-04-28T06:06:53;101136.59;;;4.83;100.00
62694;BME280;48759;52.544;13.418;2023-04-28T06:09:28;101131.16;;;4.83;100.00
62694;BME280;48759;52.544;13.418;2023-04-28T06:11:57;101131.22;;;4.91;100.00
62694;BME280;48759;52.544;13.418;2023-04-28T06:14:26;101135.28;;;5.13;100.00
62694;BME280;48759;52.544;13.418;2023-04-28T06:16:56;101126.69;;;5.25;100.00
62694;BME280;48759;52.544;13.418;2023-04-28T06:19:32;101127.09;;;5.38;100.00
62694;BME280;48759;52.544;13.418;2023-04-28T06:22:13;101132.56;;;5.38;100.00
62694;BME280;48759;52.544;13.418;2023-04-28T06:24:49;101123.59;;;5.54;100.00
62694;BME280;48759;52.544;13.418;2023-04-28T06:27:18;101127.59;;;5.68;100.00
62694;BME280;48759;52.544;13.418;2023-04-28T06:29:46;101110.50;;;5.66;100.00
62694;BME280;48759;52.544;13.418;2023-04-28T06:32:17;101101.38;;;5.91;100.00
62694;BME280;48759;52.544;13.418;2023-04-28T06:34:44;101113.50;;;5.97;100.00
62694;BME280;48759;52.544;13.418;2023-04-28T06:37:11;101113.69;;;6.11;100.00
62694;BME280;48759;52.544;13.418;2023-04-28T06:39:38;101112.00;;;6.27;100.00
62694;BME280;48759;52.544;13.418;2023-04-28T06:42:06;101101.09;;;6.43;100.00
62694;BME280;48759;52.544;13.418;2023-04-28T06:44:33;101103.84;;;6.51;100.00
62694;BME280;48759;52.544;13.418;2023-04-28T06:47:00;101104.16;;;6.72;100.00
62694;BME280;48759;52.544;13.418;2023-04-28T06:49:29;101107.94;;;6.79;100.00
62694;BME280;48759;52.544;13.418;2023-04-28T06:51:56;101100.09;;;6.84;100.00
62694;BME280;48759;52.544;13.418;2023-04-28T06:54:23;101095.28;;;6.95;100.00
62694;BME280;48759;52.544;13.418;2023-04-28T06:56:49;101094.94;;;6.98;100.00
62694;BME280;48759;52.544;13.418;2023-04-28T06:59:16;101090.84;;;7.02;100.00
62694;BME280;48759;52.544;13.418;2023-04-28T07:01:43;101090.44;;;7.13;100.00
62694;BME280;48759;52.544;13.418;2023-04-28T07:04:10;101090.78;;;7.18;100.00
62694;BME280;48759;52.544;13.418;2023-04-28T07:06:38;101086.28;;;7.33;96.83
62694;BME280;48759;52.544;13.418;2023-04-28T07:09:05;101081.53;;;7.19;100.00
62694;BME280;48759;52.544;13.418;2023-04-28T07:11:32;101087.66;;;7.29;97.21
62694;BME280;48759;52.544;13.418;2023-04-28T07:13:59;101078.72;;;7.35;97.36
62694;BME280;48759;52.544;13.418;2023-04-28T07:16:25;101081.41;;;7.51;93.02
62694;BME280;48759;52.544;13.418;2023-04-28T07:18:52;101076.47;;;7.47;91.89
62694;BME280;48759;52.544;13.418;2023-04-28T07:21:19;101075.53;;;7.62;91.90
62694;BME280;48759;52.544;13.418;2023-04-28T07:23:48;101066.94;;;7.65;90.10
62694;BME280;48759;52.544;13.418;2023-04-28T07:26:15;101064.03;;;7.67;90.01
62694;BME280;48759;52.544;13.418;2023-04-28T07:28:42;101062.22;;;7.82;89.56
62694;BME280;48759;52.544;13.418;2023-04-28T07:31:10;101064.13;;;7.82;86.95
62694;BME280;48759;52.544;13.418;2023-04-28T07:33:39;101060.44;;;7.97;85.02
62694;BME280;48759;52.544;13.418;2023-04-28T07:36:06;101062.63;;;8.02;85.46
62694;BME280;48759;52.544;13.418;2023-04-28T07:38:33;101052.66;;;8.09;86.90
62694;BME280;48759;52.544;13.418;2023-04-28T07:41:02;101053.31;;;8.19;84.73
62694;BME280;48759;52.544;13.418;2023-04-28T07:43:29;101040.84;;;8.31;83.88
62694;BME280;48759;52.544;13.418;2023-04-28T07:45:55;101041.81;;;8.38;86.63
62694;BME280;48759;52.544;13.418;2023-04-28T07:48:23;101038.03;;;8.39;82.11
62694;BME280;48759;52.544;13.418;2023-04-28T07:50:51;101039.00;;;8.47;82.51
62694;BME280;48759;52.544;13.418;2023-04-28T07:53:21;101040.03;;;8.45;82.28
62694;BME280;48759;52.544;13.418;2023-04-28T07:55:47;101036.09;;;8.63;77.84
62694;BME280;48759;52.544;13.418;2023-04-28T07:58:16;101026.09;;;8.70;79.58
62694;BME280;48759;52.544;13.418;2023-04-28T08:00:43;101035.19;;;9.00;75.32
62694;BME280;48759;52.544;13.418;2023-04-28T08:03:11;101032.25;;;8.87;74.03
62694;BME280;48759;52.544;13.418;2023-04-28T08:05:38;101032.66;;;8.98;75.98
62694;BME280;48759;52.544;13.418;2023-04-28T08:08:05;101036.34;;;9.05;73.78
62694;BME280;48759;52.544;13.418;2023-04-28T08:10:33;101027.00;;;9.14;75.91
62694;BME280;48759;52.544;13.418;2023-04-28T08:13:00;101022.22;;;9.23;72.59
62694;BME280;48759;52.544;13.418;2023-04-28T08:15:33;101022.03;;;9.25;74.54
62694;BME280;48759;52.544;13.418;2023-04-28T08:18:00;101021.06;;;9.32;72.66
62694;BME280;48759;52.544;13.418;2023-04-28T08:20:27;101020.53;;;9.37;71.41
62694;BME280;48759;52.544;13.418;2023-04-28T08:22:54;101026.13;;;9.43;70.48
62694;BME280;48759;52.544;13.418;2023-04-28T08:25:21;101020.91;;;9.48;69.89
62694;BME280;48759;52.544;13.418;2023-04-28T08:27:48;101022.56;;;9.64;66.58
62694;BME280;48759;52.544;13.418;2023-04-28T08:30:14;101025.06;;;9.59;66.26
62694;BME280;48759;52.544;13.418;2023-04-28T08:32:42;101016.78;;;9.74;66.20
62694;BME280;48759;52.544;13.418;2023-04-28T08:35:13;101018.31;;;9.97;65.17
62694;BME280;48759;52.544;13.418;2023-04-28T08:37:41;101008.44;;;10.24;62.67
62694;BME280;48759;52.544;13.418;2023-04-28T08:40:09;101008.47;;;10.31;62.73
62694;BME280;48759;52.544;13.418;2023-04-28T08:42:36;101018.31;;;10.40;60.95
62694;BME280;48759;52.544;13.418;2023-04-28T08:45:04;101004.69;;;10.53;61.76
62694;BME280;48759;52.544;13.418;2023-04-28T08:47:33;101005.47;;;10.75;60.85
62694;BME280;48759;52.544;13.418;2023-04-28T08:50:10;101001.72;;;10.83;59.41
62694;BME280;48759;52.544;13.418;2023-04-28T08:52:38;101003.91;;;10.94;58.34
62694;BME280;48759;52.544;13.418;2023-04-28T08:55:06;100994.66;;;11.08;56.70
62694;BME280;48759;52.544;13.418;2023-04-28T08:57:37;100993.78;;;11.01;57.57
62694;BME280;48759;52.544;13.418;2023-04-28T09:00:05;100987.94;;;11.17;56.62
62694;BME280;48759;52.544;13.418;2023-04-28T09:02:33;100982.47;;;11.24;59.80
62694;BME280;48759;52.544;13.418;2023-04-28T09:05:08;100979.16;;;11.41;56.02
62694;BME280;48759;52.544;13.418;2023-04-28T09:07:35;100978.34;;;11.54;57.61
62694;BME280;48759;52.544;13.418;2023-04-28T09:10:18;100973.66;;;11.41;54.86
62694;BME280;48759;52.544;13.418;2023-04-28T09:12:45;100973.53;;;11.63;55.38
62694;BME280;48759;52.544;13.418;2023-04-28T09:15:27;100968.03;;;11.63;53.94
62694;BME280;48759;52.544;13.418;2023-04-28T09:17:55;100961.50;;;11.90;53.30
62694;BME280;48759;52.544;13.418;2023-04-28T09:20:25;100952.19;;;11.98;53.44
62694;BME280;48759;52.544;13.418;2023-04-28T09:22:56;100956.84;;;11.97;52.98
62694;BME280;48759;52.544;13.418;2023-04-28T09:25:37;100951.97;;;12.32;51.39
62694;BME280;48759;52.544;13.418;2023-04-28T09:28:19;100951.34;;;12.50;50.96
62694;BME280;48759;52.544;13.418;2023-04-28T09:30:46;100946.22;;;12.47;50.35
62694;BME280;48759;52.544;13.418;2023-04-28T09:33:13;100946.47;;;12.25;51.44
62694;BME280;48759;52.544;13.418;2023-04-28T09:35:42;100940.72;;;12.47;50.13
62694;BME280;48759;52.544;13.418;2023-04-28T09:38:11;100942.19;;;12.82;50.05
62694;BME280;48759;52.544;13.418;2023-04-28T09:40:48;100936.41;;;12.97;48.84
62694;BME280;48759;52.544;13.418;2023-04-28T09:43:23;100931.25;;;13.14;47.84
62694;BME280;48759;52.544;13.418;2023-04-28T09:45:49;100927.09;;;13.36;47.96
62694;BME280;48759;52.544;13.418;2023-04-28T09:48:26;100933.41;;;13.50;48.03
62694;BME280;48759;52.544;13.418;2023-04-28T09:50:54;100932.44;;;13.75;47.27
62694;BME280;48759;52.544;13.418;2023-04-28T09:53:22;100921.59;;;14.30;45.02
62694;BME280;48759;52.544;13.418;2023-04-28T09:55:50;100916.13;;;14.24;45.82
62694;BME280;48759;52.544;13.418;2023-04-28T09:58:19;100922.38;;;14.37;44.78
62694;BME280;48759;52.544;13.418;2023-04-28T10:00:51;100926.06;;;14.06;44.85
62694;BME280;48759;52.544;13.418;2023-04-28T10:03:20;100921.94;;;14.40;45.32
62694;BME280;48759;52.544;13.418;2023-04-28T10:05:47;100908.53;;;14.62;44.11
62694;BME280;48759;52.544;13.418;2023-04-28T10:08:17;100916.03;;;14.80;43.72
62694;BME280;48759;52.544;13.418;2023-04-28T10:10:45;100919.47;;;14.75;44.13
62694;BME280;48759;52.544;13.418;2023-04-28T10:13:14;100910.03;;;15.19;43.28
62694;BME280;48759;52.544;13.418;2023-04-28T10:15:41;100913.53;;;15.45;42.79
62694;BME280;48759;52.544;13.418;2023-04-28T10:18:08;100908.78;;;15.63;41.43
62694;BME280;48759;52.544;13.418;2023-04-28T10:20:37;100913.00;;;15.36;41.60
62694;BME280;48759;52.544;13.418;2023-04-28T10:23:20;100896.81;;;15.33;42.44
62694;BME280;48759;52.544;13.418;2023-04-28T10:25:54;100899.81;;;15.50;41.53
62694;BME280;48759;52.544;13.418;2023-04-28T10:28:24;100899.44;;;15.46;41.31
62694;BME280;48759;52.544;13.418;2023-04-28T10:31:11;100893.78;;;15.53;42.62
62694;BME280;48759;52.544;13.418;2023-04-28T10:33:39;100886.69;;;15.57;41.93
62694;BME280;48759;52.544;13.418;2023-04-28T10:36:07;100885.47;;;15.94;41.73
62694;BME280;48759;52.544;13.418;2023-04-28T10:38:36;100882.22;;;15.97;42.06
62694;BME280;48759;52.544;13.418;2023-04-28T10:41:30;100879.91;;;15.94;41.05
62694;BME280;48759;52.544;13.418;2023-04-28T10:43:57;100873.78;;;16.16;40.36
62694;BME280;48759;52.544;13.418;2023-04-28T10:46:24;100870.66;;;16.12;40.10
62694;BME280;48759;52.544;13.418;2023-04-28T10:48:55;100877.06;;;16.13;41.28
62694;BME280;48759;52.544;13.418;2023-04-28T10:51:28;100869.00;;;16.23;40.45
62694;BME280;48759;52.544;13.418;2023-04-28T10:54:16;100868.13;;;16.11;39.46
62694;BME280;48759;52.544;13.418;2023-04-28T10:57:20;100865.16;;;16.35;39.60
62694;BME280;48759;52.544;13.418;2023-04-28T10:59:48;100854.88;;;16.59;40.19
62694;BME280;48759;52.544;13.418;2023-04-28T11:02:37;100852.09;;;16.48;40.18
62694;BME280;48759;52.544;13.418;2023-04-28T11:05:18;100847.97;;;16.62;39.95
62694;BME280;48759;52.544;13.418;2023-04-28T11:11:24;100851.56;;;16.97;38.70
62694;BME280;48759;52.544;13.418;2023-04-28T11:13:52;100846.13;;;16.79;38.62
62694;BME280;48759;52.544;13.418;2023-04-28T11:16:21;100845.25;;;17.02;38.77
62694;BME280;48759;52.544;13.418;2023-04-28T11:18:51;100851.84;;;17.24;38.91
62694;BME280;48759;52.544;13.418;2023-04-28T11:21:19;100845.75;;;17.27;38.82
62694;BME280;48759;52.544;13.418;2023-04-28T11:23:46;100843.69;;;17.34;38.33
62694;BME280;48759;52.544;13.418;2023-04-28T11:26:14;100836.50;;;17.67;37.31
62694;BME280;48759;52.544;13.418;2023-04-28T11:28:48;100848.97;;;17.92;37.03
62694;BME280;48759;52.544;13.418;2023-04-28T11:31:15;100838.00;;;18.03;37.67
62694;BME280;48759;52.544;13.418;2023-04-28T11:33:46;100836.03;;;18.03;36.70
62694;BME280;48759;52.544;13.418;2023-04-28T11:36:28;100840.00;;;18.07;36.13
62694;BME280;48759;52.544;13.418;2023-04-28T11:38:56;100836.31;;;18.18;36.90
62694;BME280;48759;52.544;13.418;2023-04-28T11:41:23;100837.41;;;18.01;37.37
62694;BME280;48759;52.544;13.418;2023-04-28T11:43:52;100830.69;;;18.35;36.09
62694;BME280;48759;52.544;13.418;2023-04-28T11:46:20;100830.06;;;17.78;38.28
62694;BME280;48759;52.544;13.418;2023-04-28T11:48:47;100825.28;;;18.28;36.80
62694;BME280;48759;52.544;13.418;2023-04-28T11:51:34;100819.25;;;17.98;37.75
62694;BME280;48759;52.544;13.418;2023-04-28T11:54:01;100818.91;;;17.78;37.09
62694;BME280;48759;52.544;13.418;2023-04-28T11:56:29;100819.59;;;17.85;36.50
62694;BME280;48759;52.544;13.418;2023-04-28T11:59:02;100812.81;;;18.14;37.24
62694;BME280;48759;52.544;13.418;2023-04-28T12:01:30;100813.41;;;18.50;35.76
62694;BME280;48759;52.544;13.418;2023-04-28T12:03:57;100811.13;;;17.80;36.20
62694;BME280;48759;52.544;13.418;2023-04-28T12:06:24;100813.47;;;18.38;35.79
62694;BME280;48759;52.544;13.418;2023-04-28T12:08:51;100809.78;;;18.49;35.47
62694;BME280;48759;52.544;13.418;2023-04-28T12:11:18;100811.66;;;18.87;34.95
62694;BME280;48759;52.544;13.418;2023-04-28T12:14:05;100803.75;;;18.79;34.92
62694;BME280;48759;52.544;13.418;2023-04-28T12:16:39;100811.47;;;18.33;35.03
62694;BME280;48759;52.544;13.418;2023-04-28T12:19:08;100793.28;;;18.91;34.61
62694;BME280;48759;52.544;13.418;2023-04-28T12:21:36;100801.53;;;19.25;34.91
62694;BME280;48759;52.544;13.418;2023-04-28T12:24:18;100792.72;;;18.89;34.66
62694;BME280;48759;52.544;13.418;2023-04-28T12:26:45;100798.03;;;19.13;35.25
62694;BME280;48759;52.544;13.418;2023-04-28T12:29:35;100792.59;;;18.79;35.62
62694;BME280;48759;52.544;13.418;2023-04-28T12:32:07;100791.09;;;18.71;35.41
62694;BME280;48759;52.544;13.418;2023-04-28T12:34:35;100794.09;;;18.87;35.77
62694;BME280;48759;52.544;13.418;2023-04-28T12:37:04;100786.75;;;19.02;35.76
62694;BME280;48759;52.544;13.418;2023-04-28T12:39:31;100784.50;;;18.78;35.86
62694;BME280;48759;52.544;13.418;2023-04-28T12:41:59;100784.94;;;18.91;36.14
62694;BME280;48759;52.544;13.418;2023-04-28T12:44:26;100782.22;;;18.53;36.54
62694;BME280;48759;52.544;13.418;2023-04-28T12:46:55;100783.13;;;18.80;35.77
62694;BME280;48759;52.544;13.418;2023-04-28T12:49:21;100776.50;;;18.86;36.96
62694;BME280;48759;52.544;13.418;2023-04-28T12:51:48;100776.28;;;18.66;36.61
62694;BME280;48759;52.544;13.418;2023-04-28T12:54:15;100772.72;;;18.15;36.98